Time;durP1;ratioP1;P1;durP2;ratioP2;P2;SDS_P1;SDS_P2;PMS_P1;PMS_P2;Temp;Humidity;BMP_temperature;BMP_pressure;BME280_temperature;BME280_humidity;BME280_pressure;Samples;Min_cycle;Max_cycle;Signal;HPM_P1;HPM_P2
2023/05/26 02:28:55;;;;;;;;;;;15.20;91.70;;;;;;5029791;28;20297;-96
2023/05/26 02:31:23;;;;;;;;;;;15.20;91.70;;;;;;5027178;28;20008;-96
2023/05/26 02:33:49;;;;;;;;;;;15.20;91.70;;;;;;5026434;28;19909;-96
2023/05/26 02:36:14;;;;;;;;;;;15.20;91.70;;;;;;5027864;28;19975;-96
2023/05/26 02:38:40;;;;;;;;;;;15.20;91.70;;;;;;5030783;28;19941;-96
2023/05/26 02:41:07;;;;;;;;;;;15.20;91.70;;;;;;5033565;28;19971;-96
2023/05/26 02:43:33;;;;;;;;;;;15.10;91.60;;;;;;5030771;28;20020;-96
2023/05/26 02:45:59;;;;;;;;;;;15.10;91.60;;;;;;5030183;28;20012;-96
2023/05/26 02:48:25;;;;;;;;;;;15.20;91.70;;;;;;5031122;28;19948;-96
2023/05/26 02:50:50;;;;;;;;;;;15.20;91.70;;;;;;5032290;28;20357;-96
2023/05/26 02:53:18;;;;;;;;;;;15.20;91.70;;;;;;5035207;28;19913;-96
2023/05/26 02:55:44;;;;;;;;;;;15.10;91.70;;;;;;5035498;28;19909;-96
2023/05/26 02:58:12;;;;;;;;;;;15.10;91.60;;;;;;5036428;28;19913;-96
2023/05/26 03:00:40;;;;;;;;;;;15.70;91.80;;;;;;5034916;28;19913;-96
2023/05/26 03:03:06;;;;;;;;;;;15.10;91.60;;;;;;5029579;28;19948;-96
2023/05/26 03:05:34;;;;;;;;;;;15.10;91.60;;;;;;5025617;28;20468;-96
2023/05/26 03:08:03;;;;;;;;;;;15.10;91.60;;;;;;5029771;28;19963;-96
2023/05/26 03:10:39;;;;;;;;;;;15.10;91.60;;;;;;5035191;28;19914;-96
2023/05/26 03:13:05;;;;;;;;;;;15.10;91.60;;;;;;5026178;28;20011;-96
2023/05/26 03:15:35;;;;;;;;;;;15.10;91.60;;;;;;5036576;28;19955;-95
2023/05/26 03:18:02;;;;;;;;;;;15.10;91.60;;;;;;5025917;28;20361;-96
2023/05/26 03:20:30;;;;;;;;;;;15.10;91.60;;;;;;5013840;28;20387;-96
2023/05/26 03:22:59;;;;;;;;;;;15.10;91.60;;;;;;5031840;28;20361;-96
2023/05/26 03:25:28;;;;;;;;;;;15.10;91.60;;;;;;5033002;28;19917;-96
2023/05/26 03:27:54;;;;;;;;;;;15.10;91.60;;;;;;5024676;28;19917;-96
2023/05/26 03:30:19;;;;;;;;;;;15.10;91.60;;;;;;5030835;28;20538;-96
2023/05/26 03:32:45;;;;;;;;;;;15.10;91.60;;;;;;5031888;28;19978;-96
2023/05/26 03:35:14;;;;;;;;;;;15.00;91.60;;;;;;5031648;28;19975;-96
2023/05/26 03:37:40;;;;;;;;;;;15.10;91.60;;;;;;5030563;28;19909;-96
2023/05/26 03:40:06;;;;;;;;;;;15.10;91.60;;;;;;5029334;28;19909;-96
2023/05/26 03:42:31;;;;;;;;;;;15.10;91.60;;;;;;5039619;28;19968;-96
2023/05/26 03:44:57;;;;;;;;;;;15.00;91.60;;;;;;5026805;28;19956;-96
2023/05/26 03:47:25;;;;;;;;;;;15.10;91.60;;;;;;5006192;28;19921;-96
2023/05/26 03:49:51;;;;;;;;;;;15.00;91.60;;;;;;5030727;28;20022;-96
2023/05/26 03:52:19;;;;;;;;;;;15.00;91.60;;;;;;5031494;28;19952;-96
2023/05/26 03:54:44;;;;;;;;;;;15.00;91.60;;;;;;5029592;28;20047;-96
2023/05/26 03:57:10;;;;;;;;;;;15.00;91.60;;;;;;5028430;28;19998;-96
2023/05/26 03:59:36;;;;;;;;;;;15.00;91.60;;;;;;5015129;28;19917;-96
2023/05/26 04:02:02;;;;;;;;;;;15.00;91.60;;;;;;5029458;28;20403;-96
2023/05/26 04:04:27;;;;;;;;;;;15.00;91.70;;;;;;5025210;28;20011;-96
2023/05/26 04:06:55;;;;;;;;;;;15.00;91.70;;;;;;5031754;28;19913;-96
2023/05/26 04:09:20;;;;;;;;;;;15.00;91.60;;;;;;5027295;28;20004;-96
2023/05/26 04:11:48;;;;;;;;;;;15.00;91.60;;;;;;5031148;28;20568;-96
2023/05/26 04:14:14;;;;;;;;;;;15.00;91.60;;;;;;5031321;28;19909;-96
2023/05/26 04:16:40;;;;;;;;;;;15.00;91.60;;;;;;5028155;28;19916;-96
2023/05/26 04:19:05;;;;;;;;;;;15.00;91.70;;;;;;5023755;28;19970;-96
2023/05/26 04:21:35;;;;;;;;;;;15.00;91.70;;;;;;5028983;28;19925;-96
2023/05/26 04:24:01;;;;;;;;;;;15.00;91.70;;;;;;5032464;28;19909;-96
2023/05/26 04:26:28;;;;;;;;;;;15.00;91.70;;;;;;5032642;28;19955;-96
2023/05/26 04:28:56;;;;;;;;;;;15.00;91.70;;;;;;5009867;28;19949;-96
2023/05/26 04:31:28;;;;;;;;;;;15.60;91.90;;;;;;5032652;28;19913;-96
2023/05/26 04:33:58;;;;;;;;;;;15.00;91.70;;;;;;5032836;28;19996;-96
2023/05/26 04:36:24;;;;;;;;;;;15.00;91.70;;;;;;5030535;28;19918;-96
2023/05/26 04:38:52;;;;;;;;;;;15.00;91.70;;;;;;5033253;28;19909;-96
2023/05/26 04:41:18;;;;;;;;;;;15.00;91.70;;;;;;5032982;28;19922;-96
2023/05/26 04:43:44;;;;;;;;;;;15.00;91.70;;;;;;5028291;28;19996;-96
2023/05/26 04:46:11;;;;;;;;;;;15.00;91.70;;;;;;5032249;28;19998;-96
2023/05/26 04:48:37;;;;;;;;;;;15.00;91.70;;;;;;5032849;28;20369;-96
2023/05/26 04:51:03;;;;;;;;;;;15.00;91.70;;;;;;5032062;28;19968;-96
2023/05/26 04:53:29;;;;;;;;;;;15.00;91.70;;;;;;5030562;28;19943;-96
2023/05/26 04:55:56;;;;;;;;;;;15.00;91.70;;;;;;5032124;28;19913;-96
2023/05/26 04:58:22;;;;;;;;;;;15.00;91.70;;;;;;5033379;28;19917;-96
2023/05/26 05:00:50;;;;;;;;;;;15.00;91.70;;;;;;5031323;28;20386;-96
2023/05/26 05:03:16;;;;;;;;;;;15.00;91.70;;;;;;5039225;28;20392;-96
2023/05/26 05:05:44;;;;;;;;;;;15.00;91.70;;;;;;5043135;28;20027;-96
2023/05/26 05:08:10;;;;;;;;;;;15.00;91.70;;;;;;5043386;28;19913;-96
2023/05/26 05:10:41;;;;;;;;;;;15.00;91.80;;;;;;5028316;28;19909;-96
2023/05/26 05:13:07;;;;;;;;;;;15.00;91.80;;;;;;5023453;28;20361;-96
2023/05/26 05:15:32;;;;;;;;;;;15.10;91.80;;;;;;5022861;28;19916;-96
2023/05/26 05:18:02;;;;;;;;;;;15.20;91.90;;;;;;5025305;28;20009;-96
2023/05/26 05:20:30;;;;;;;;;;;15.10;91.90;;;;;;5023916;28;19909;-96
2023/05/26 05:23:02;;;;;;;;;;;15.10;91.80;;;;;;5030831;28;20130;-96
2023/05/26 05:25:29;;;;;;;;;;;15.10;91.80;;;;;;5032720;28;19909;-96
2023/05/26 05:28:02;;;;;;;;;;;15.20;91.80;;;;;;5031321;28;19917;-96
2023/05/26 05:30:34;;;;;;;;;;;15.20;91.80;;;;;;5024328;28;19909;-96
2023/05/26 05:32:59;;;;;;;;;;;15.20;91.80;;;;;;5029980;28;20395;-96
2023/05/26 05:35:45;;;;;;;;;;;15.20;91.80;;;;;;5034421;28;19962;-96
2023/05/26 05:38:16;;;;;;;;;;;15.20;91.80;;;;;;5029334;28;19944;-96
2023/05/26 05:40:42;;;;;;;;;;;15.20;91.80;;;;;;5026912;28;19917;-96
2023/05/26 05:46:20;;;;;;;;;;;15.30;91.70;;;;;;4937117;29;19914;-96
2023/05/26 05:48:48;;;;;;;;;;;15.30;91.70;;;;;;4920126;29;20539;-96
2023/05/26 05:51:14;;;;;;;;;;;15.30;91.70;;;;;;4914692;29;19919;-96
2023/05/26 05:53:41;;;;;;;;;;;15.30;91.70;;;;;;4932481;29;20454;-96
2023/05/26 05:56:09;;;;;;;;;;;15.30;91.60;;;;;;4916528;29;19953;-96
2023/05/26 05:58:35;;;;;;;;;;;15.40;91.70;;;;;;4935618;29;19910;-96
2023/05/26 06:01:01;;;;;;;;;;;15.40;91.60;;;;;;4920631;29;20072;-96
2023/05/26 06:03:26;;;;;;;;;;;15.40;91.60;;;;;;4920519;29;19992;-96
2023/05/26 06:05:52;;;;;;;;;;;15.40;91.60;;;;;;4917560;29;20384;-96
2023/05/26 06:08:18;;;;;;;;;;;15.40;91.50;;;;;;4938961;29;19923;-96
2023/05/26 06:10:44;;;;;;;;;;;15.50;91.50;;;;;;4916033;29;19922;-96
2023/05/26 06:13:10;;;;;;;;;;;15.50;91.50;;;;;;4937462;29;20001;-96
2023/05/26 06:15:35;;;;;;;;;;;15.50;91.40;;;;;;4936759;29;19910;-96
2023/05/26 06:18:10;;;;;;;;;;;15.60;91.40;;;;;;4935652;29;19918;-96
2023/05/26 06:20:35;;;;;;;;;;;15.60;91.40;;;;;;4935805;29;19917;-96
2023/05/26 06:23:01;;;;;;;;;;;15.70;91.30;;;;;;4982757;28;20003;-96
2023/05/26 06:25:27;;;;;;;;;;;15.70;91.20;;;;;;5034084;28;20308;-96
2023/05/26 06:27:52;;;;;;;;;;;15.80;91.20;;;;;;5037505;28;19925;-96
2023/05/26 06:30:25;;;;;;;;;;;15.80;91.00;;;;;;5025938;28;19955;-96
2023/05/26 06:32:51;;;;;;;;;;;15.90;91.00;;;;;;5012881;28;19913;-96
2023/05/26 06:35:17;;;;;;;;;;;15.90;90.90;;;;;;5034435;28;19913;-96
2023/05/26 06:37:42;;;;;;;;;;;16.00;90.90;;;;;;5029326;28;19913;-96
2023/05/26 06:40:08;;;;;;;;;;;16.00;90.70;;;;;;5034187;28;19916;-96
2023/05/26 06:42:33;;;;;;;;;;;16.10;90.70;;;;;;5028656;28;20749;-95
2023/05/26 06:44:59;;;;;;;;;;;16.10;90.60;;;;;;5022306;28;19916;-95
2023/05/26 06:47:25;;;;;;;;;;;16.10;90.50;;;;;;5042253;28;20050;-96
2023/05/26 06:49:50;;;;;;;;;;;16.20;90.40;;;;;;5027912;28;19917;-96
2023/05/26 06:52:16;;;;;;;;;;;16.20;90.30;;;;;;5044091;28;20496;-96
2023/05/26 06:54:42;;;;;;;;;;;16.30;90.20;;;;;;5029426;28;19919;-95
2023/05/26 06:57:08;;;;;;;;;;;16.30;90.10;;;;;;5033962;28;20012;-96
2023/05/26 06:59:33;;;;;;;;;;;16.40;90.00;;;;;;5046733;28;19999;-96
2023/05/26 07:02:06;;;;;;;;;;;16.40;89.90;;;;;;5034305;28;19914;-96
2023/05/26 07:04:32;;;;;;;;;;;16.40;89.60;;;;;;5007769;28;19925;-96
2023/05/26 07:06:58;;;;;;;;;;;16.50;89.60;;;;;;5033172;28;19909;-96
2023/05/26 07:09:23;;;;;;;;;;;16.50;89.20;;;;;;5034187;28;19992;-96
2023/05/26 07:11:49;;;;;;;;;;;16.60;89.20;;;;;;5028906;28;19909;-96
2023/05/26 07:14:15;;;;;;;;;;;16.60;89.10;;;;;;5030639;28;20397;-96
2023/05/26 07:16:41;;;;;;;;;;;16.70;89.00;;;;;;5034165;28;19909;-96
2023/05/26 07:19:07;;;;;;;;;;;16.70;88.80;;;;;;5032955;28;19921;-95
2023/05/26 07:21:32;;;;;;;;;;;16.70;88.70;;;;;;5028190;28;20293;-95
2023/05/26 07:23:58;;;;;;;;;;;17.00;88.80;;;;;;5023309;28;20001;-96
2023/05/26 07:26:24;;;;;;;;;;;17.20;88.80;;;;;;5033353;28;19967;-96
2023/05/26 07:28:50;;;;;;;;;;;16.90;88.40;;;;;;5027404;28;20341;-95
2023/05/26 07:31:16;;;;;;;;;;;16.90;88.30;;;;;;5045490;28;19913;-96
2023/05/26 07:33:41;;;;;;;;;;;16.90;88.10;;;;;;5032940;28;19914;-96
2023/05/26 07:36:07;;;;;;;;;;;17.00;88.10;;;;;;5031213;28;19909;-96
2023/05/26 07:38:33;;;;;;;;;;;17.00;88.10;;;;;;5033189;28;19917;-96
2023/05/26 07:40:58;;;;;;;;;;;17.10;87.90;;;;;;5027552;28;19964;-95
2023/05/26 07:43:24;;;;;;;;;;;17.10;87.70;;;;;;5042415;28;20364;-96
2023/05/26 07:45:49;;;;;;;;;;;17.20;87.70;;;;;;5032768;28;20367;-96
2023/05/26 07:48:15;;;;;;;;;;;17.20;87.50;;;;;;5027696;28;19909;-96
2023/05/26 07:50:41;;;;;;;;;;;17.20;87.40;;;;;;5010749;28;19948;-96
2023/05/26 07:53:06;;;;;;;;;;;17.30;87.20;;;;;;5042098;28;19919;-95
2023/05/26 07:55:32;;;;;;;;;;;17.30;87.10;;;;;;5026157;28;19952;-96
2023/05/26 07:58:01;;;;;;;;;;;17.40;87.10;;;;;;5048424;28;20361;-96
2023/05/26 08:00:26;;;;;;;;;;;17.40;86.90;;;;;;5046889;28;19909;-95
2023/05/26 08:02:52;;;;;;;;;;;17.40;86.70;;;;;;5032848;28;19941;-95
2023/05/26 08:05:18;;;;;;;;;;;17.50;86.60;;;;;;5028598;28;19917;-96
2023/05/26 08:07:43;;;;;;;;;;;17.50;86.50;;;;;;5028034;28;19962;-96
2023/05/26 08:10:09;;;;;;;;;;;17.50;86.40;;;;;;5029353;28;19921;-96
2023/05/26 08:12:35;;;;;;;;;;;17.60;86.40;;;;;;5033572;28;19910;-95
2023/05/26 08:15:11;;;;;;;;;;;17.50;86.20;;;;;;5052562;28;19909;-96
2023/05/26 08:17:40;;;;;;;;;;;17.60;86.10;;;;;;5032648;28;19905;-96
2023/05/26 08:20:06;;;;;;;;;;;17.60;86.00;;;;;;5035940;28;19913;-96
2023/05/26 08:22:32;;;;;;;;;;;17.70;85.80;;;;;;5027066;28;19968;-96
2023/05/26 08:24:59;;;;;;;;;;;17.70;85.70;;;;;;5041920;28;19910;-96
2023/05/26 08:27:30;;;;;;;;;;;17.80;85.70;;;;;;5062625;28;19932;-96
2023/05/26 08:29:58;;;;;;;;;;;17.80;86.30;;;;;;5041464;28;19920;-96
2023/05/26 08:32:24;;;;;;;;;;;17.80;85.50;;;;;;5052310;28;19909;-96
2023/05/26 08:34:50;;;;;;;;;;;17.80;85.40;;;;;;5033038;28;19914;-96
2023/05/26 08:37:18;;;;;;;;;;;17.90;85.40;;;;;;5032526;28;19916;-96
2023/05/26 08:39:46;;;;;;;;;;;17.90;85.40;;;;;;5024174;28;19914;-96
2023/05/26 08:42:18;;;;;;;;;;;17.90;85.30;;;;;;5034574;28;19945;-96
2023/05/26 08:44:44;;;;;;;;;;;17.90;85.30;;;;;;5037815;28;20621;-96
2023/05/26 08:47:11;;;;;;;;;;;17.90;85.20;;;;;;5039536;28;19917;-95
2023/05/26 08:49:42;;;;;;;;;;;17.90;85.20;;;;;;5045137;28;19940;-95
2023/05/26 08:52:14;;;;;;;;;;;18.00;85.20;;;;;;5036032;28;19913;-96
2023/05/26 08:54:40;;;;;;;;;;;18.00;85.00;;;;;;5037560;28;19916;-96
2023/05/26 09:00:19;;;;;;;;;;;;;;;;;;;;;
2023/05/26 09:05:39;;;;;;;;;;;18.00;84.60;;;;;;6006037;22;19929;-96
2023/05/26 09:08:15;;;;;;;;;;;18.10;84.60;;;;;;5025965;28;20431;-96
2023/05/26 09:10:41;;;;;;;;;;;18.10;84.60;;;;;;5032547;28;19916;-96
2023/05/26 09:13:07;;;;;;;;;;;18.10;84.40;;;;;;5034484;28;19909;-96
2023/05/26 09:15:37;;;;;;;;;;;18.20;84.40;;;;;;5054788;28;19909;-96
2023/05/26 09:18:28;;;;;;;;;;;18.20;84.30;;;;;;5028343;28;19909;-96
2023/05/26 09:20:57;;;;;;;;;;;18.20;84.20;;;;;;5034897;28;19913;-96
2023/05/26 09:23:25;;;;;;;;;;;18.20;84.10;;;;;;5036675;28;19913;-96
2023/05/26 09:25:53;;;;;;;;;;;18.20;84.10;;;;;;5038892;28;19937;-96
2023/05/26 09:28:22;;;;;;;;;;;18.10;83.90;;;;;;5039999;28;19909;-96
2023/05/26 09:30:48;;;;;;;;;;;18.20;84.00;;;;;;5031612;28;19916;-96
2023/05/26 09:33:21;;;;;;;;;;;18.20;83.90;;;;;;5023293;28;19921;-96
2023/05/26 09:35:50;;;;;;;;;;;18.30;84.00;;;;;;5030218;28;19909;-96
2023/05/26 09:38:32;;;;;;;;;;;18.30;83.90;;;;;;5030174;28;19917;-96
2023/05/26 09:43:36;;;;;;;;;;;18.30;83.80;;;;;;5139988;22;19924;-96
2023/05/26 09:49:22;;;;;;;;;;;18.30;83.70;;;;;;5321411;22;19929;-96
2023/05/26 09:51:49;;;;;;;;;;;18.30;83.60;;;;;;5061270;28;19932;-96
2023/05/26 09:54:15;;;;;;;;;;;18.40;83.60;;;;;;5080319;28;19917;-96
2023/05/26 09:57:17;;;;;;;;;;;18.40;83.50;;;;;;5054231;28;19901;-96
2023/05/26 11:54:32;;;;;;;;;;;17.70;84.80;;;;;;6230438;22;19949;31
2023/05/26 12:20:23;;;;;;;;;;;17.60;85.60;;;;;;6048716;22;19915;-96
2023/05/26 13:01:39;;;;;;;;;;;17.40;86.40;;;;;;5319450;22;19929;-96
2023/05/26 13:04:08;;;;;;;;;;;18.00;86.70;;;;;;5025814;28;19971;-96
2023/05/26 13:22:08;;;;;;;;;;;17.40;86.60;;;;;;5302638;22;19928;-96
2023/05/26 13:24:37;;;;;;;;;;;17.40;86.70;;;;;;5040500;28;19913;-96
2023/05/26 13:27:03;;;;;;;;;;;17.40;86.70;;;;;;5045265;28;19909;-96
2023/05/26 13:29:34;;;;;;;;;;;17.40;86.70;;;;;;5044787;28;19923;-96
2023/05/26 13:32:02;;;;;;;;;;;17.40;86.70;;;;;;5055313;28;19912;-96
2023/05/26 13:34:57;;;;;;;;;;;17.40;86.80;;;;;;5071835;28;19916;-96
2023/05/26 13:37:32;;;;;;;;;;;17.90;87.10;;;;;;5050484;28;19909;-96
2023/05/26 13:40:08;;;;;;;;;;;17.40;86.90;;;;;;5064834;28;19917;-96
2023/05/26 13:42:45;;;;;;;;;;;17.40;86.90;;;;;;5054934;28;19917;-96
2023/05/26 13:45:24;;;;;;;;;;;17.40;87.00;;;;;;5072850;28;19934;-96
2023/05/26 13:47:54;;;;;;;;;;;17.40;87.00;;;;;;5044804;28;19909;-96
2023/05/26 13:50:30;;;;;;;;;;;17.30;86.90;;;;;;5054916;28;19909;-96
2023/05/26 13:53:19;;;;;;;;;;;17.40;87.00;;;;;;5079285;28;19946;-96
2023/05/26 13:56:10;;;;;;;;;;;17.30;87.00;;;;;;5060458;28;19916;-96
2023/05/26 14:01:54;;;;;;;;;;;17.30;87.10;;;;;;5076102;28;19996;-96
2023/05/26 14:15:06;;;;;;;;;;;17.30;87.20;;;;;;5426652;22;19908;-96
2023/05/26 14:28:00;;;;;;;;;;;17.30;87.20;;;;;;5427494;22;19925;-96
2023/05/26 14:30:27;;;;;;;;;;;17.80;87.50;;;;;;5054023;28;19912;-96
2023/05/26 14:33:11;;;;;;;;;;;17.30;87.30;;;;;;5070540;28;19909;-96
2023/05/26 14:35:38;;;;;;;;;;;17.30;87.30;;;;;;5069591;28;19909;-95
2023/05/26 14:38:09;;;;;;;;;;;17.30;87.40;;;;;;5073679;28;19981;-96
2023/05/26 14:40:36;;;;;;;;;;;17.80;87.70;;;;;;5071177;28;19908;-96
2023/05/26 14:43:04;;;;;;;;;;;17.30;87.50;;;;;;5071334;28;19924;-96
2023/05/26 14:45:30;;;;;;;;;;;17.30;87.30;;;;;;5048777;28;19912;-96
2023/05/26 14:47:57;;;;;;;;;;;17.30;87.40;;;;;;5074427;28;19970;-96
2023/05/26 14:50:33;;;;;;;;;;;17.30;87.40;;;;;;5075651;28;19909;-96
2023/05/26 14:53:14;;;;;;;;;;;17.30;87.50;;;;;;5073600;28;19921;-96
2023/05/26 14:55:42;;;;;;;;;;;17.30;87.50;;;;;;5209572;23;19995;-95
2023/05/26 14:58:11;;;;;;;;;;;17.30;87.50;;;;;;5140048;22;19913;-96
2023/05/26 17:00:27;;;;;;;;;;;17.10;87.60;;;;;;5270478;23;20273;-95
2023/05/26 17:08:09;;;;;;;;;;;17.00;87.50;;;;;;5060494;28;19928;-96
2023/05/26 17:10:56;;;;;;;;;;;17.00;88.30;;;;;;5066863;28;19919;-96
2023/05/26 17:13:24;;;;;;;;;;;17.00;87.60;;;;;;5050765;28;19908;-96
2023/05/26 17:15:52;;;;;;;;;;;17.00;87.60;;;;;;5070265;28;19908;-96
2023/05/26 17:18:17;;;;;;;;;;;17.00;87.60;;;;;;5040543;28;20074;-96
2023/05/26 17:20:43;;;;;;;;;;;17.00;87.70;;;;;;5039563;28;19913;-96
2023/05/26 17:23:11;;;;;;;;;;;17.00;87.70;;;;;;5042745;28;19923;-96
2023/05/26 17:25:37;;;;;;;;;;;17.00;87.70;;;;;;5033257;28;20368;-96
2023/05/26 17:28:03;;;;;;;;;;;17.00;87.80;;;;;;5043080;28;20086;-96
2023/05/26 17:30:34;;;;;;;;;;;17.00;87.70;;;;;;5048174;28;19943;-96
2023/05/26 17:33:05;;;;;;;;;;;17.00;87.70;;;;;;5046062;28;19912;-96
2023/05/26 17:35:39;;;;;;;;;;;17.20;88.00;;;;;;5046405;28;19909;-96
2023/05/26 17:38:07;;;;;;;;;;;16.90;87.70;;;;;;5030868;28;19909;-95
2023/05/26 17:40:36;;;;;;;;;;;17.00;87.80;;;;;;5047068;28;19931;-96
2023/05/26 17:43:02;;;;;;;;;;;17.00;88.60;;;;;;5038079;28;19925;-95
2023/05/26 17:45:33;;;;;;;;;;;17.00;87.90;;;;;;5022843;28;19934;-96
2023/05/26 17:48:01;;;;;;;;;;;17.00;88.70;;;;;;5044608;28;19920;-96
2023/05/26 17:50:27;;;;;;;;;;;16.90;87.90;;;;;;5047992;28;19909;-95
2023/05/26 17:52:53;;;;;;;;;;;17.00;88.00;;;;;;5043653;28;20504;-96
2023/05/26 17:55:23;;;;;;;;;;;16.90;88.00;;;;;;5041639;28;19923;-95
2023/05/26 17:57:48;;;;;;;;;;;16.90;88.00;;;;;;5044327;28;19912;-96
2023/05/26 18:00:14;;;;;;;;;;;16.90;88.10;;;;;;5023570;28;20019;-96
2023/05/26 18:02:43;;;;;;;;;;;16.90;88.10;;;;;;5024366;28;19942;-96
2023/05/26 18:05:09;;;;;;;;;;;16.90;88.20;;;;;;5049878;28;20376;-96
2023/05/26 18:07:37;;;;;;;;;;;16.90;88.20;;;;;;5046648;28;19917;-96
2023/05/26 18:10:08;;;;;;;;;;;16.90;88.30;;;;;;5068812;28;19909;-96
2023/05/26 18:12:33;;;;;;;;;;;16.90;88.40;;;;;;5046612;28;19908;-96
2023/05/26 18:14:59;;;;;;;;;;;16.90;88.40;;;;;;5043566;28;19994;-96
2023/05/26 18:17:29;;;;;;;;;;;16.90;88.50;;;;;;5046462;28;19908;-96
2023/05/26 18:19:54;;;;;;;;;;;16.90;88.60;;;;;;5042388;28;19915;-96
2023/05/26 18:22:20;;;;;;;;;;;16.90;88.60;;;;;;5046351;28;19913;-96
2023/05/26 18:24:58;;;;;;;;;;;16.90;88.70;;;;;;5049327;28;19962;-96
2023/05/26 18:27:31;;;;;;;;;;;16.90;88.80;;;;;;5067493;28;19908;-96
2023/05/26 18:30:09;;;;;;;;;;;16.90;88.80;;;;;;5038180;28;19909;-96
2023/05/26 18:32:35;;;;;;;;;;;16.90;88.90;;;;;;5039941;28;19909;-96
2023/05/26 18:38:27;;;;;;;;;;;16.80;88.90;;;;;;5073698;28;19959;-96
2023/05/26 18:40:55;;;;;;;;;;;16.80;89.00;;;;;;5052983;28;19909;-96
2023/05/26 18:43:36;;;;;;;;;;;16.80;89.10;;;;;;5052251;28;19934;-96
2023/05/26 18:46:35;;;;;;;;;;;;;;;;;;;;;
2023/05/26 18:49:30;;;;;;;;;;;;;;;;;;;;;
2023/05/26 18:52:25;;;;;;;;;;;;;;;;;;;;;
2023/05/26 18:54:56;;;;;;;;;;;16.80;89.20;;;;;;5002388;28;19972;-96
2023/05/26 19:00:31;;;;;;;;;;;16.80;89.30;;;;;;4967300;28;19921;-96
2023/05/26 19:03:06;;;;;;;;;;;16.80;89.30;;;;;;4968537;28;19925;-96
2023/05/26 19:05:37;;;;;;;;;;;16.80;89.30;;;;;;4949935;28;19910;-96
2023/05/26 19:08:12;;;;;;;;;;;16.70;89.30;;;;;;4963861;28;20340;-96
2023/05/26 19:10:43;;;;;;;;;;;16.70;89.30;;;;;;4943572;28;19922;-96
2023/05/26 19:13:14;;;;;;;;;;;16.70;89.40;;;;;;4958545;28;19949;-96
2023/05/26 19:16:29;;;;;;;;;;;;;;;;;;;;;
2023/05/26 19:18:52;;;;;;;;;;;16.70;89.40;;;;;;4952060;28;19917;-96
2023/05/26 19:21:28;;;;;;;;;;;16.70;89.50;;;;;;4947134;28;19941;-96
2023/05/26 19:23:54;;;;;;;;;;;16.70;89.50;;;;;;4968339;28;19933;-96
2023/05/26 19:26:20;;;;;;;;;;;16.70;89.50;;;;;;4961648;28;19911;-96
2023/05/26 19:28:46;;;;;;;;;;;16.70;89.60;;;;;;4958296;28;20009;-96
2023/05/26 19:31:15;;;;;;;;;;;16.70;89.60;;;;;;4955443;28;20005;-95
2023/05/26 19:33:41;;;;;;;;;;;16.70;89.60;;;;;;4956858;28;19979;-96
2023/05/26 19:36:06;;;;;;;;;;;16.70;89.60;;;;;;4965730;28;19910;-96
2023/05/26 19:38:35;;;;;;;;;;;16.70;89.70;;;;;;4990188;28;19910;-96
2023/05/26 19:41:04;;;;;;;;;;;16.70;89.70;;;;;;4987576;28;19910;-96
2023/05/26 19:43:35;;;;;;;;;;;16.70;89.70;;;;;;4987018;28;19910;-96
2023/05/26 19:46:00;;;;;;;;;;;16.70;89.70;;;;;;4965791;28;20000;-96
2023/05/26 19:48:29;;;;;;;;;;;16.70;89.70;;;;;;4990031;28;19941;-96
2023/05/26 19:50:55;;;;;;;;;;;16.60;89.60;;;;;;4989925;28;19909;-94
2023/05/26 19:53:41;;;;;;;;;;;16.60;89.60;;;;;;4985334;28;19910;-95
2023/05/26 19:56:07;;;;;;;;;;;16.60;89.60;;;;;;4984227;28;19999;-96
2023/05/26 19:58:37;;;;;;;;;;;16.60;89.60;;;;;;4998559;28;19910;-96
2023/05/26 20:01:03;;;;;;;;;;;16.60;89.60;;;;;;4984646;28;19913;-96
2023/05/26 20:03:29;;;;;;;;;;;16.60;89.60;;;;;;4972316;28;19960;-96
2023/05/26 20:05:54;;;;;;;;;;;16.60;89.60;;;;;;4983475;28;19949;-96
2023/05/26 20:08:21;;;;;;;;;;;16.60;89.60;;;;;;4991996;28;19917;-96
2023/05/26 20:10:51;;;;;;;;;;;16.60;89.60;;;;;;4980882;28;19917;-96
2023/05/26 20:13:19;;;;;;;;;;;16.60;89.60;;;;;;4985518;28;19921;-96
2023/05/26 20:16:00;;;;;;;;;;;16.60;89.70;;;;;;4986709;28;20366;-96
2023/05/26 20:18:25;;;;;;;;;;;16.60;89.60;;;;;;4988360;28;19944;-96
2023/05/26 20:20:51;;;;;;;;;;;16.60;89.60;;;;;;4981960;28;19917;-96
2023/05/26 20:23:17;;;;;;;;;;;16.60;89.80;;;;;;5004066;28;19944;-96
2023/05/26 20:25:50;;;;;;;;;;;16.60;89.70;;;;;;4986204;28;19959;-96
2023/05/26 20:39:43;;;;;;;;;;;16.50;89.60;;;;;;5847548;22;11602641;-96
2023/05/26 20:42:10;;;;;;;;;;;16.60;89.90;;;;;;6133284;23;19936;-96
2023/05/26 20:44:42;;;;;;;;;;;16.50;89.80;;;;;;6132828;23;20282;-96
2023/05/26 20:47:08;;;;;;;;;;;16.70;90.00;;;;;;6134554;23;19964;-96
2023/05/26 20:49:53;;;;;;;;;;;16.50;90.00;;;;;;6133640;23;20267;-96
2023/05/26 20:52:20;;;;;;;;;;;16.90;90.10;;;;;;6135760;23;19955;-96
2023/05/26 20:55:00;;;;;;;;;;;16.50;90.00;;;;;;6134679;23;19905;-96
2023/05/26 20:57:29;;;;;;;;;;;16.50;90.00;;;;;;6133914;23;20323;-96
2023/05/26 20:59:56;;;;;;;;;;;16.50;90.00;;;;;;6133504;23;19909;-96
2023/05/26 21:02:25;;;;;;;;;;;16.40;90.00;;;;;;6134436;23;19905;-96
2023/05/26 21:04:53;;;;;;;;;;;16.50;90.10;;;;;;6133407;23;19988;-96
2023/05/26 21:07:23;;;;;;;;;;;16.40;90.00;;;;;;6135096;23;19917;-96
2023/05/26 21:09:54;;;;;;;;;;;16.40;90.00;;;;;;6133524;23;20310;-96
2023/05/26 21:12:20;;;;;;;;;;;16.40;90.00;;;;;;6133517;23;19905;-96
2023/05/26 21:14:45;;;;;;;;;;;16.40;90.00;;;;;;6132734;23;20048;-96
2023/05/26 21:17:14;;;;;;;;;;;16.40;90.00;;;;;;6133154;23;19976;-96
2023/05/26 21:22:43;;;;;;;;;;;16.40;90.00;;;;;;6135255;23;20274;-96
2023/05/26 21:25:11;;;;;;;;;;;16.40;90.00;;;;;;6132638;23;19909;-95
2023/05/26 21:27:36;;;;;;;;;;;16.40;89.80;;;;;;6132728;23;19924;-96
2023/05/26 21:30:02;;;;;;;;;;;16.40;89.70;;;;;;6132541;23;19905;-95
2023/05/26 21:32:28;;;;;;;;;;;16.40;89.80;;;;;;6132628;23;20341;-95
2023/05/26 21:34:53;;;;;;;;;;;16.40;89.70;;;;;;6131907;23;19905;-96
2023/05/26 21:37:19;;;;;;;;;;;16.40;90.00;;;;;;6132685;23;19905;-95
2023/05/26 21:39:45;;;;;;;;;;;16.40;89.90;;;;;;6125837;23;19919;-95
2023/05/26 21:42:17;;;;;;;;;;;16.40;89.80;;;;;;6127325;23;19905;-96
2023/05/26 21:44:42;;;;;;;;;;;16.40;89.70;;;;;;6102867;23;19913;-96
2023/05/26 21:47:08;;;;;;;;;;;16.40;89.50;;;;;;6127562;23;19920;-96
2023/05/26 21:49:34;;;;;;;;;;;16.40;89.30;;;;;;6127899;23;19960;-96
2023/05/26 21:51:59;;;;;;;;;;;16.40;89.70;;;;;;6125453;23;19924;-95
2023/05/26 21:54:25;;;;;;;;;;;16.30;89.40;;;;;;6126473;23;19905;-95
2023/05/26 21:56:50;;;;;;;;;;;16.30;89.40;;;;;;6125172;23;20331;-96
2023/05/26 21:59:16;;;;;;;;;;;17.20;90.00;;;;;;6125215;23;19909;-96
2023/05/26 22:01:42;;;;;;;;;;;16.30;89.20;;;;;;6124105;23;19968;-96
2023/05/26 22:04:07;;;;;;;;;;;16.40;89.50;;;;;;6124978;23;19989;-95
2023/05/26 22:06:37;;;;;;;;;;;16.30;89.50;;;;;;6126594;23;19913;-95
2023/05/26 22:09:03;;;;;;;;;;;16.30;89.60;;;;;;6126759;23;19928;-96
2023/05/26 22:11:29;;;;;;;;;;;16.30;89.40;;;;;;6127603;23;19905;-95
2023/05/26 22:13:55;;;;;;;;;;;16.40;89.50;;;;;;6126215;23;20345;-96
2023/05/26 22:16:20;;;;;;;;;;;16.40;89.30;;;;;;6125543;23;19909;-95
2023/05/26 22:18:47;;;;;;;;;;;16.30;89.40;;;;;;6126443;23;19940;-96
2023/05/26 22:21:12;;;;;;;;;;;16.30;89.20;;;;;;6125034;23;19912;-96
2023/05/26 22:23:38;;;;;;;;;;;16.30;89.20;;;;;;6125376;23;19905;-96
2023/05/26 22:26:03;;;;;;;;;;;16.30;88.70;;;;;;6126338;23;19943;-95
2023/05/26 22:28:29;;;;;;;;;;;16.30;89.00;;;;;;6126287;23;19945;-94
2023/05/26 22:30:58;;;;;;;;;;;16.30;89.00;;;;;;6126320;23;19905;-96
2023/05/26 22:33:24;;;;;;;;;;;16.30;88.90;;;;;;6130251;23;19905;-95
2023/05/26 22:35:52;;;;;;;;;;;17.00;89.30;;;;;;6103399;23;19972;-96
2023/05/26 22:38:20;;;;;;;;;;;16.30;88.50;;;;;;6126839;23;19905;-95
2023/05/26 22:40:46;;;;;;;;;;;16.20;88.00;;;;;;6126920;23;20306;-95
2023/05/26 22:43:12;;;;;;;;;;;16.30;88.30;;;;;;6126739;23;19905;-95
2023/05/26 22:45:38;;;;;;;;;;;16.30;88.30;;;;;;6127068;23;20319;-95
2023/05/26 22:48:06;;;;;;;;;;;16.30;88.20;;;;;;6127275;23;19917;-96
2023/05/26 22:50:33;;;;;;;;;;;16.20;88.30;;;;;;6125736;23;20208;-96
2023/05/26 22:52:59;;;;;;;;;;;16.20;88.10;;;;;;6127014;23;19929;-96
2023/05/26 22:55:25;;;;;;;;;;;16.20;88.10;;;;;;6126366;23;19905;-95
2023/05/26 22:57:50;;;;;;;;;;;16.30;88.30;;;;;;6125141;23;20318;-96
2023/05/26 23:00:16;;;;;;;;;;;16.20;88.20;;;;;;6125005;23;19920;-96
2023/05/26 23:02:44;;;;;;;;;;;16.20;87.90;;;;;;6124943;23;19905;-96
2023/05/26 23:05:10;;;;;;;;;;;16.20;87.70;;;;;;6125017;23;19965;-96
2023/05/26 23:07:38;;;;;;;;;;;16.20;87.80;;;;;;6124741;23;20134;-96
2023/05/26 23:10:04;;;;;;;;;;;16.20;88.00;;;;;;6124353;23;19987;-96
2023/05/26 23:12:29;;;;;;;;;;;16.20;88.00;;;;;;6124728;23;19956;-96
2023/05/26 23:14:55;;;;;;;;;;;16.20;88.00;;;;;;6125553;23;19910;-96